<?xml version="1.0" encoding="UTF-8" standalone="no" ?>
<gpx xmlns="http://www.topografix.com/GPX/1/1" xmlns:xsi="http://www.w3.org/2001/XMLSchema-instance" xsi:schemaLocation="http://www.topografix.com/GPX/1/1 http://www.topografix.com/GPX/1/1/gpx.xsd" version="1.1" creator="VisuGPX - https://www.visugpx.com">
  <metadata>
    <name>Les Monts de Valmalle à partir de Murviel-lès-Montpellier</name>
    <desc><![CDATA[#fait]]></desc>
  </metadata>
  <wpt lat="43.6136" lon="3.7109">
    <ele>187</ele>
    <name><![CDATA[Parking à proximité du poste de gaz]]></name>
  </wpt>
  <wpt lat="43.61349" lon="3.70893">
    <ele>180</ele>
    <name><![CDATA[Carrefour de la boucle]]></name>
  </wpt>
  <wpt lat="43.61286" lon="3.6872">
    <ele>160</ele>
    <name><![CDATA[Bifurquer à droite pour basculer en descente ]]></name>
  </wpt>
  <wpt lat="43.61036" lon="3.68184">
    <ele>133</ele>
    <name><![CDATA[Carrefour]]></name>
  </wpt>
  <wpt lat="43.60975" lon="3.67583">
    <ele>163</ele>
    <name><![CDATA[Fourche - Citernes]]></name>
  </wpt>
  <wpt lat="43.60927" lon="3.67605">
    <ele>161</ele>
    <name><![CDATA[Prendre 3ème chemin cimenté à forte pente]]></name>
  </wpt>
  <wpt lat="43.6057" lon="3.67527">
    <ele>146</ele>
    <name><![CDATA[Carrefour sous ligne HT]]></name>
  </wpt>
  <wpt lat="43.60237" lon="3.6673">
    <ele>194</ele>
    <name><![CDATA[Départ de chemin à droite ]]></name>
  </wpt>
  <wpt lat="43.60074" lon="3.65877">
    <ele>285</ele>
    <name><![CDATA[Bifurcation avant un pylône haute tension]]></name>
  </wpt>
  <wpt lat="43.60025" lon="3.65871">
    <ele>287</ele>
    <name><![CDATA[Carrefour 4 directions Ligne HT]]></name>
  </wpt>
  <wpt lat="43.59719" lon="3.65674">
    <ele>270</ele>
    <name><![CDATA[Croisement]]></name>
  </wpt>
  <wpt lat="43.59509" lon="3.66051">
    <ele>270</ele>
    <name><![CDATA[Point coté 272, Continuer à droite en orientation ]]></name>
  </wpt>
  <wpt lat="43.59491" lon="3.66094">
    <ele>272</ele>
    <name><![CDATA[Carrefour]]></name>
  </wpt>
  <wpt lat="43.59442" lon="3.66866">
    <ele>208</ele>
    <name><![CDATA[Carrefour - Contournerment]]></name>
  </wpt>
  <wpt lat="43.59037" lon="3.68539">
    <ele>135</ele>
    <name><![CDATA[Chemin DFCI]]></name>
  </wpt>
  <wpt lat="43.59305" lon="3.68623">
    <ele>171</ele>
    <name><![CDATA[Tourner à droite (petite butte), orientation Est]]></name>
  </wpt>
  <wpt lat="43.60275" lon="3.68474">
    <ele>138</ele>
    <name><![CDATA[Croisement en T]]></name>
  </wpt>
  <wpt lat="43.60486" lon="3.68621">
    <ele>105</ele>
    <name><![CDATA[Bifurcation]]></name>
  </wpt>
  <wpt lat="43.61024" lon="3.68965">
    <ele>127</ele>
    <name><![CDATA[Croisement - Chemin raviné]]></name>
  </wpt>
  <wpt lat="43.61138" lon="3.70319">
    <ele>177</ele>
    <name><![CDATA[Fin lisière du bois]]></name>
  </wpt>
  <wpt lat="43.61157" lon="3.70359">
    <ele>180</ele>
    <name><![CDATA[Patte d'oie]]></name>
  </wpt>
  <wpt lat="43.61218" lon="3.70439">
    <ele>182</ele>
    <name><![CDATA[Continuer à droite en orientation Est]]></name>
  </wpt>
  <wpt lat="43.6136" lon="3.7109">
    <ele>187</ele>
    <name><![CDATA[Parking à proximité du poste de gaz]]></name>
  </wpt>
  <trk>
    <name><![CDATA[Les Monts de Valmalle à partir de Murviel-lès-Montpellier]]></name>
    <trkseg>
      <trkpt lat="43.6136" lon="3.7109">
        <ele>187</ele>
        <time>2021-05-01T21:33:00+02:00</time>
      </trkpt>
      <trkpt lat="43.61345" lon="3.71077">
        <ele>186</ele>
        <time>2021-05-01T21:33:05+02:00</time>
      </trkpt>
      <trkpt lat="43.61346" lon="3.71049">
        <ele>185</ele>
        <time>2021-05-01T21:33:10+02:00</time>
      </trkpt>
      <trkpt lat="43.6135" lon="3.70995">
        <ele>183</ele>
        <time>2021-05-01T21:33:15+02:00</time>
      </trkpt>
      <trkpt lat="43.6135" lon="3.70954">
        <ele>181</ele>
        <time>2021-05-01T21:33:20+02:00</time>
      </trkpt>
      <trkpt lat="43.61349" lon="3.70893">
        <ele>180</ele>
        <time>2021-05-01T21:33:25+02:00</time>
      </trkpt>
      <trkpt lat="43.61364" lon="3.70875">
        <ele>182</ele>
        <time>2021-05-01T21:33:30+02:00</time>
      </trkpt>
      <trkpt lat="43.61375" lon="3.7086">
        <ele>184</ele>
        <time>2021-05-01T21:33:35+02:00</time>
      </trkpt>
      <trkpt lat="43.61389" lon="3.70839">
        <ele>187</ele>
        <time>2021-05-01T21:33:40+02:00</time>
      </trkpt>
      <trkpt lat="43.61414" lon="3.708">
        <ele>191</ele>
        <time>2021-05-01T21:33:45+02:00</time>
      </trkpt>
      <trkpt lat="43.61444" lon="3.7076">
        <ele>195</ele>
        <time>2021-05-01T21:33:50+02:00</time>
      </trkpt>
      <trkpt lat="43.61499" lon="3.70692">
        <ele>195</ele>
        <time>2021-05-01T21:33:55+02:00</time>
      </trkpt>
      <trkpt lat="43.61555" lon="3.70622">
        <ele>193</ele>
        <time>2021-05-01T21:34:00+02:00</time>
      </trkpt>
      <trkpt lat="43.61581" lon="3.70589">
        <ele>189</ele>
        <time>2021-05-01T21:34:05+02:00</time>
      </trkpt>
      <trkpt lat="43.61608" lon="3.70553">
        <ele>190</ele>
        <time>2021-05-01T21:34:10+02:00</time>
      </trkpt>
      <trkpt lat="43.61622" lon="3.7043">
        <ele>186</ele>
        <time>2021-05-01T21:34:15+02:00</time>
      </trkpt>
      <trkpt lat="43.61637" lon="3.70306">
        <ele>183</ele>
        <time>2021-05-01T21:34:20+02:00</time>
      </trkpt>
      <trkpt lat="43.61649" lon="3.70214">
        <ele>182</ele>
        <time>2021-05-01T21:34:25+02:00</time>
      </trkpt>
      <trkpt lat="43.6166" lon="3.70114">
        <ele>183</ele>
        <time>2021-05-01T21:34:30+02:00</time>
      </trkpt>
      <trkpt lat="43.61666" lon="3.70061">
        <ele>182</ele>
        <time>2021-05-01T21:34:35+02:00</time>
      </trkpt>
      <trkpt lat="43.61674" lon="3.70007">
        <ele>185</ele>
        <time>2021-05-01T21:34:40+02:00</time>
      </trkpt>
      <trkpt lat="43.61676" lon="3.69974">
        <ele>185</ele>
        <time>2021-05-01T21:34:45+02:00</time>
      </trkpt>
      <trkpt lat="43.61669" lon="3.69951">
        <ele>185</ele>
        <time>2021-05-01T21:34:50+02:00</time>
      </trkpt>
      <trkpt lat="43.61655" lon="3.69924">
        <ele>185</ele>
        <time>2021-05-01T21:34:55+02:00</time>
      </trkpt>
      <trkpt lat="43.61633" lon="3.69848">
        <ele>185</ele>
        <time>2021-05-01T21:35:00+02:00</time>
      </trkpt>
      <trkpt lat="43.61632" lon="3.69824">
        <ele>185</ele>
        <time>2021-05-01T21:35:05+02:00</time>
      </trkpt>
      <trkpt lat="43.61621" lon="3.69793">
        <ele>185</ele>
        <time>2021-05-01T21:35:10+02:00</time>
      </trkpt>
      <trkpt lat="43.61612" lon="3.69779">
        <ele>185</ele>
        <time>2021-05-01T21:35:15+02:00</time>
      </trkpt>
      <trkpt lat="43.61603" lon="3.69762">
        <ele>185</ele>
        <time>2021-05-01T21:35:20+02:00</time>
      </trkpt>
      <trkpt lat="43.61588" lon="3.69723">
        <ele>185</ele>
        <time>2021-05-01T21:35:25+02:00</time>
      </trkpt>
      <trkpt lat="43.61573" lon="3.69695">
        <ele>185</ele>
        <time>2021-05-01T21:35:30+02:00</time>
      </trkpt>
      <trkpt lat="43.61559" lon="3.69685">
        <ele>185</ele>
        <time>2021-05-01T21:35:35+02:00</time>
      </trkpt>
      <trkpt lat="43.61546" lon="3.6967">
        <ele>185</ele>
        <time>2021-05-01T21:35:40+02:00</time>
      </trkpt>
      <trkpt lat="43.61498" lon="3.69595">
        <ele>182</ele>
        <time>2021-05-01T21:35:45+02:00</time>
      </trkpt>
      <trkpt lat="43.61446" lon="3.69519">
        <ele>180</ele>
        <time>2021-05-01T21:35:50+02:00</time>
      </trkpt>
      <trkpt lat="43.61424" lon="3.69502">
        <ele>180</ele>
        <time>2021-05-01T21:35:55+02:00</time>
      </trkpt>
      <trkpt lat="43.6141" lon="3.69489">
        <ele>180</ele>
        <time>2021-05-01T21:36:00+02:00</time>
      </trkpt>
      <trkpt lat="43.614" lon="3.69471">
        <ele>180</ele>
        <time>2021-05-01T21:36:05+02:00</time>
      </trkpt>
      <trkpt lat="43.61391" lon="3.69442">
        <ele>180</ele>
        <time>2021-05-01T21:36:10+02:00</time>
      </trkpt>
      <trkpt lat="43.6138" lon="3.69411">
        <ele>180</ele>
        <time>2021-05-01T21:36:15+02:00</time>
      </trkpt>
      <trkpt lat="43.61376" lon="3.6937">
        <ele>179</ele>
        <time>2021-05-01T21:36:20+02:00</time>
      </trkpt>
      <trkpt lat="43.61381" lon="3.69322">
        <ele>178</ele>
        <time>2021-05-01T21:36:25+02:00</time>
      </trkpt>
      <trkpt lat="43.61376" lon="3.69276">
        <ele>177</ele>
        <time>2021-05-01T21:36:30+02:00</time>
      </trkpt>
      <trkpt lat="43.61381" lon="3.69241">
        <ele>176</ele>
        <time>2021-05-01T21:36:35+02:00</time>
      </trkpt>
      <trkpt lat="43.61401" lon="3.69212">
        <ele>175</ele>
        <time>2021-05-01T21:36:40+02:00</time>
      </trkpt>
      <trkpt lat="43.61425" lon="3.69153">
        <ele>172</ele>
        <time>2021-05-01T21:36:45+02:00</time>
      </trkpt>
      <trkpt lat="43.61446" lon="3.69123">
        <ele>172</ele>
        <time>2021-05-01T21:36:50+02:00</time>
      </trkpt>
      <trkpt lat="43.61478" lon="3.69039">
        <ele>171</ele>
        <time>2021-05-01T21:36:55+02:00</time>
      </trkpt>
      <trkpt lat="43.61484" lon="3.68962">
        <ele>169</ele>
        <time>2021-05-01T21:37:00+02:00</time>
      </trkpt>
      <trkpt lat="43.61481" lon="3.68942">
        <ele>168</ele>
        <time>2021-05-01T21:37:05+02:00</time>
      </trkpt>
      <trkpt lat="43.61476" lon="3.68915">
        <ele>167</ele>
        <time>2021-05-01T21:37:10+02:00</time>
      </trkpt>
      <trkpt lat="43.61444" lon="3.68867">
        <ele>163</ele>
        <time>2021-05-01T21:37:15+02:00</time>
      </trkpt>
      <trkpt lat="43.61425" lon="3.68832">
        <ele>161</ele>
        <time>2021-05-01T21:37:20+02:00</time>
      </trkpt>
      <trkpt lat="43.61413" lon="3.68817">
        <ele>160</ele>
        <time>2021-05-01T21:37:25+02:00</time>
      </trkpt>
      <trkpt lat="43.61387" lon="3.68796">
        <ele>160</ele>
        <time>2021-05-01T21:37:30+02:00</time>
      </trkpt>
      <trkpt lat="43.6134" lon="3.68737">
        <ele>160</ele>
        <time>2021-05-01T21:37:35+02:00</time>
      </trkpt>
      <trkpt lat="43.61313" lon="3.68727">
        <ele>160</ele>
        <time>2021-05-01T21:37:40+02:00</time>
      </trkpt>
      <trkpt lat="43.61286" lon="3.6872">
        <ele>160</ele>
        <time>2021-05-01T21:37:45+02:00</time>
      </trkpt>
      <trkpt lat="43.61285" lon="3.68691">
        <ele>160</ele>
        <time>2021-05-01T21:37:50+02:00</time>
      </trkpt>
      <trkpt lat="43.61287" lon="3.68669">
        <ele>160</ele>
        <time>2021-05-01T21:37:55+02:00</time>
      </trkpt>
      <trkpt lat="43.61292" lon="3.68654">
        <ele>160</ele>
        <time>2021-05-01T21:38:00+02:00</time>
      </trkpt>
      <trkpt lat="43.61297" lon="3.68636">
        <ele>160</ele>
        <time>2021-05-01T21:38:05+02:00</time>
      </trkpt>
      <trkpt lat="43.61299" lon="3.6862">
        <ele>159</ele>
        <time>2021-05-01T21:38:10+02:00</time>
      </trkpt>
      <trkpt lat="43.61304" lon="3.68597">
        <ele>157</ele>
        <time>2021-05-01T21:38:15+02:00</time>
      </trkpt>
      <trkpt lat="43.61309" lon="3.68574">
        <ele>155</ele>
        <time>2021-05-01T21:38:20+02:00</time>
      </trkpt>
      <trkpt lat="43.61317" lon="3.68557">
        <ele>153</ele>
        <time>2021-05-01T21:38:25+02:00</time>
      </trkpt>
      <trkpt lat="43.61321" lon="3.68542">
        <ele>150</ele>
        <time>2021-05-01T21:38:30+02:00</time>
      </trkpt>
      <trkpt lat="43.61322" lon="3.68525">
        <ele>148</ele>
        <time>2021-05-01T21:38:35+02:00</time>
      </trkpt>
      <trkpt lat="43.61324" lon="3.68499">
        <ele>143</ele>
        <time>2021-05-01T21:38:40+02:00</time>
      </trkpt>
      <trkpt lat="43.61322" lon="3.68469">
        <ele>138</ele>
        <time>2021-05-01T21:38:45+02:00</time>
      </trkpt>
      <trkpt lat="43.61321" lon="3.68449">
        <ele>134</ele>
        <time>2021-05-01T21:38:50+02:00</time>
      </trkpt>
      <trkpt lat="43.61321" lon="3.68414">
        <ele>127</ele>
        <time>2021-05-01T21:38:55+02:00</time>
      </trkpt>
      <trkpt lat="43.6132" lon="3.68399">
        <ele>124</ele>
        <time>2021-05-01T21:39:00+02:00</time>
      </trkpt>
      <trkpt lat="43.61321" lon="3.68381">
        <ele>121</ele>
        <time>2021-05-01T21:39:05+02:00</time>
      </trkpt>
      <trkpt lat="43.61327" lon="3.68353">
        <ele>117</ele>
        <time>2021-05-01T21:39:10+02:00</time>
      </trkpt>
      <trkpt lat="43.61336" lon="3.68333">
        <ele>114</ele>
        <time>2021-05-01T21:39:15+02:00</time>
      </trkpt>
      <trkpt lat="43.6134" lon="3.68322">
        <ele>111</ele>
        <time>2021-05-01T21:39:20+02:00</time>
      </trkpt>
      <trkpt lat="43.61349" lon="3.68299">
        <ele>106</ele>
        <time>2021-05-01T21:39:25+02:00</time>
      </trkpt>
      <trkpt lat="43.61326" lon="3.68292">
        <ele>106</ele>
        <time>2021-05-01T21:39:30+02:00</time>
      </trkpt>
      <trkpt lat="43.61287" lon="3.68287">
        <ele>106</ele>
        <time>2021-05-01T21:39:35+02:00</time>
      </trkpt>
      <trkpt lat="43.61259" lon="3.68302">
        <ele>108</ele>
        <time>2021-05-01T21:39:40+02:00</time>
      </trkpt>
      <trkpt lat="43.61238" lon="3.68331">
        <ele>109</ele>
        <time>2021-05-01T21:39:45+02:00</time>
      </trkpt>
      <trkpt lat="43.61223" lon="3.6836">
        <ele>110</ele>
        <time>2021-05-01T21:39:50+02:00</time>
      </trkpt>
      <trkpt lat="43.61205" lon="3.68382">
        <ele>110</ele>
        <time>2021-05-01T21:39:55+02:00</time>
      </trkpt>
      <trkpt lat="43.6119" lon="3.68397">
        <ele>109</ele>
        <time>2021-05-01T21:40:00+02:00</time>
      </trkpt>
      <trkpt lat="43.61173" lon="3.68421">
        <ele>108</ele>
        <time>2021-05-01T21:40:05+02:00</time>
      </trkpt>
      <trkpt lat="43.61159" lon="3.6844">
        <ele>109</ele>
        <time>2021-05-01T21:40:10+02:00</time>
      </trkpt>
      <trkpt lat="43.61136" lon="3.68463">
        <ele>107</ele>
        <time>2021-05-01T21:40:15+02:00</time>
      </trkpt>
      <trkpt lat="43.6114" lon="3.68447">
        <ele>106</ele>
        <time>2021-05-01T21:40:20+02:00</time>
      </trkpt>
      <trkpt lat="43.61146" lon="3.68411">
        <ele>105</ele>
        <time>2021-05-01T21:40:25+02:00</time>
      </trkpt>
      <trkpt lat="43.61153" lon="3.68373">
        <ele>106</ele>
        <time>2021-05-01T21:40:30+02:00</time>
      </trkpt>
      <trkpt lat="43.61153" lon="3.68354">
        <ele>106</ele>
        <time>2021-05-01T21:40:35+02:00</time>
      </trkpt>
      <trkpt lat="43.61135" lon="3.68349">
        <ele>108</ele>
        <time>2021-05-01T21:40:40+02:00</time>
      </trkpt>
      <trkpt lat="43.61117" lon="3.68361">
        <ele>113</ele>
        <time>2021-05-01T21:40:45+02:00</time>
      </trkpt>
      <trkpt lat="43.61098" lon="3.68367">
        <ele>116</ele>
        <time>2021-05-01T21:40:50+02:00</time>
      </trkpt>
      <trkpt lat="43.61088" lon="3.68383">
        <ele>116</ele>
        <time>2021-05-01T21:40:55+02:00</time>
      </trkpt>
      <trkpt lat="43.61077" lon="3.68393">
        <ele>117</ele>
        <time>2021-05-01T21:41:00+02:00</time>
      </trkpt>
      <trkpt lat="43.61066" lon="3.68414">
        <ele>114</ele>
        <time>2021-05-01T21:41:05+02:00</time>
      </trkpt>
      <trkpt lat="43.61052" lon="3.68433">
        <ele>113</ele>
        <time>2021-05-01T21:41:10+02:00</time>
      </trkpt>
      <trkpt lat="43.61029" lon="3.68428">
        <ele>115</ele>
        <time>2021-05-01T21:41:15+02:00</time>
      </trkpt>
      <trkpt lat="43.61017" lon="3.68419">
        <ele>117</ele>
        <time>2021-05-01T21:41:20+02:00</time>
      </trkpt>
      <trkpt lat="43.61011" lon="3.68386">
        <ele>122</ele>
        <time>2021-05-01T21:41:25+02:00</time>
      </trkpt>
      <trkpt lat="43.61015" lon="3.68354">
        <ele>125</ele>
        <time>2021-05-01T21:41:30+02:00</time>
      </trkpt>
      <trkpt lat="43.61025" lon="3.68333">
        <ele>127</ele>
        <time>2021-05-01T21:41:35+02:00</time>
      </trkpt>
      <trkpt lat="43.61027" lon="3.68306">
        <ele>128</ele>
        <time>2021-05-01T21:41:40+02:00</time>
      </trkpt>
      <trkpt lat="43.61041" lon="3.68265">
        <ele>130</ele>
        <time>2021-05-01T21:41:45+02:00</time>
      </trkpt>
      <trkpt lat="43.61038" lon="3.68234">
        <ele>131</ele>
        <time>2021-05-01T21:41:50+02:00</time>
      </trkpt>
      <trkpt lat="43.61033" lon="3.68211">
        <ele>132</ele>
        <time>2021-05-01T21:41:55+02:00</time>
      </trkpt>
      <trkpt lat="43.61036" lon="3.68184">
        <ele>133</ele>
        <time>2021-05-01T21:42:00+02:00</time>
      </trkpt>
      <trkpt lat="43.61047" lon="3.68175">
        <ele>134</ele>
        <time>2021-05-01T21:42:05+02:00</time>
      </trkpt>
      <trkpt lat="43.61056" lon="3.68164">
        <ele>134</ele>
        <time>2021-05-01T21:42:10+02:00</time>
      </trkpt>
      <trkpt lat="43.61066" lon="3.68151">
        <ele>133</ele>
        <time>2021-05-01T21:42:15+02:00</time>
      </trkpt>
      <trkpt lat="43.61076" lon="3.68135">
        <ele>133</ele>
        <time>2021-05-01T21:42:20+02:00</time>
      </trkpt>
      <trkpt lat="43.61079" lon="3.68118">
        <ele>134</ele>
        <time>2021-05-01T21:42:25+02:00</time>
      </trkpt>
      <trkpt lat="43.61079" lon="3.68087">
        <ele>136</ele>
        <time>2021-05-01T21:42:30+02:00</time>
      </trkpt>
      <trkpt lat="43.61076" lon="3.68072">
        <ele>137</ele>
        <time>2021-05-01T21:42:35+02:00</time>
      </trkpt>
      <trkpt lat="43.61071" lon="3.68047">
        <ele>138</ele>
        <time>2021-05-01T21:42:40+02:00</time>
      </trkpt>
      <trkpt lat="43.6107" lon="3.68032">
        <ele>139</ele>
        <time>2021-05-01T21:42:45+02:00</time>
      </trkpt>
      <trkpt lat="43.61072" lon="3.68012">
        <ele>140</ele>
        <time>2021-05-01T21:42:50+02:00</time>
      </trkpt>
      <trkpt lat="43.61077" lon="3.67994">
        <ele>141</ele>
        <time>2021-05-01T21:42:55+02:00</time>
      </trkpt>
      <trkpt lat="43.61071" lon="3.67977">
        <ele>141</ele>
        <time>2021-05-01T21:43:00+02:00</time>
      </trkpt>
      <trkpt lat="43.61068" lon="3.67951">
        <ele>142</ele>
        <time>2021-05-01T21:43:05+02:00</time>
      </trkpt>
      <trkpt lat="43.61073" lon="3.67941">
        <ele>143</ele>
        <time>2021-05-01T21:43:10+02:00</time>
      </trkpt>
      <trkpt lat="43.61084" lon="3.67929">
        <ele>145</ele>
        <time>2021-05-01T21:43:15+02:00</time>
      </trkpt>
      <trkpt lat="43.61091" lon="3.67911">
        <ele>145</ele>
        <time>2021-05-01T21:43:20+02:00</time>
      </trkpt>
      <trkpt lat="43.61101" lon="3.67886">
        <ele>145</ele>
        <time>2021-05-01T21:43:25+02:00</time>
      </trkpt>
      <trkpt lat="43.6111" lon="3.67866">
        <ele>145</ele>
        <time>2021-05-01T21:43:30+02:00</time>
      </trkpt>
      <trkpt lat="43.61116" lon="3.6784">
        <ele>144</ele>
        <time>2021-05-01T21:43:35+02:00</time>
      </trkpt>
      <trkpt lat="43.61116" lon="3.67813">
        <ele>144</ele>
        <time>2021-05-01T21:43:40+02:00</time>
      </trkpt>
      <trkpt lat="43.61112" lon="3.67782">
        <ele>145</ele>
        <time>2021-05-01T21:43:45+02:00</time>
      </trkpt>
      <trkpt lat="43.61112" lon="3.6776">
        <ele>145</ele>
        <time>2021-05-01T21:43:50+02:00</time>
      </trkpt>
      <trkpt lat="43.6111" lon="3.67719">
        <ele>147</ele>
        <time>2021-05-01T21:43:55+02:00</time>
      </trkpt>
      <trkpt lat="43.61101" lon="3.67713">
        <ele>149</ele>
        <time>2021-05-01T21:44:00+02:00</time>
      </trkpt>
      <trkpt lat="43.61064" lon="3.67657">
        <ele>154</ele>
        <time>2021-05-01T21:44:05+02:00</time>
      </trkpt>
      <trkpt lat="43.61038" lon="3.67626">
        <ele>157</ele>
        <time>2021-05-01T21:44:10+02:00</time>
      </trkpt>
      <trkpt lat="43.61015" lon="3.6761">
        <ele>159</ele>
        <time>2021-05-01T21:44:15+02:00</time>
      </trkpt>
      <trkpt lat="43.6098" lon="3.67586">
        <ele>162</ele>
        <time>2021-05-01T21:44:20+02:00</time>
      </trkpt>
      <trkpt lat="43.60975" lon="3.67583">
        <ele>163</ele>
        <time>2021-05-01T21:44:25+02:00</time>
      </trkpt>
      <trkpt lat="43.60943" lon="3.67599">
        <ele>162</ele>
        <time>2021-05-01T21:44:30+02:00</time>
      </trkpt>
      <trkpt lat="43.60927" lon="3.67605">
        <ele>161</ele>
        <time>2021-05-01T21:44:35+02:00</time>
      </trkpt>
      <trkpt lat="43.6089" lon="3.67588">
        <ele>158</ele>
        <time>2021-05-01T21:44:40+02:00</time>
      </trkpt>
      <trkpt lat="43.6087" lon="3.67562">
        <ele>153</ele>
        <time>2021-05-01T21:44:45+02:00</time>
      </trkpt>
      <trkpt lat="43.60861" lon="3.6755">
        <ele>150</ele>
        <time>2021-05-01T21:44:50+02:00</time>
      </trkpt>
      <trkpt lat="43.60849" lon="3.67522">
        <ele>148</ele>
        <time>2021-05-01T21:44:55+02:00</time>
      </trkpt>
      <trkpt lat="43.60839" lon="3.67513">
        <ele>145</ele>
        <time>2021-05-01T21:45:00+02:00</time>
      </trkpt>
      <trkpt lat="43.60831" lon="3.67606">
        <ele>141</ele>
        <time>2021-05-01T21:45:05+02:00</time>
      </trkpt>
      <trkpt lat="43.60834" lon="3.67643">
        <ele>140</ele>
        <time>2021-05-01T21:45:10+02:00</time>
      </trkpt>
      <trkpt lat="43.60837" lon="3.67668">
        <ele>140</ele>
        <time>2021-05-01T21:45:15+02:00</time>
      </trkpt>
      <trkpt lat="43.60829" lon="3.67711">
        <ele>137</ele>
        <time>2021-05-01T21:45:20+02:00</time>
      </trkpt>
      <trkpt lat="43.6083" lon="3.67781">
        <ele>134</ele>
        <time>2021-05-01T21:45:25+02:00</time>
      </trkpt>
      <trkpt lat="43.60827" lon="3.67847">
        <ele>130</ele>
        <time>2021-05-01T21:45:30+02:00</time>
      </trkpt>
      <trkpt lat="43.60825" lon="3.6788">
        <ele>129</ele>
        <time>2021-05-01T21:45:35+02:00</time>
      </trkpt>
      <trkpt lat="43.60815" lon="3.67911">
        <ele>126</ele>
        <time>2021-05-01T21:45:40+02:00</time>
      </trkpt>
      <trkpt lat="43.60814" lon="3.67892">
        <ele>126</ele>
        <time>2021-05-01T21:45:45+02:00</time>
      </trkpt>
      <trkpt lat="43.60814" lon="3.67857">
        <ele>126</ele>
        <time>2021-05-01T21:45:50+02:00</time>
      </trkpt>
      <trkpt lat="43.60806" lon="3.67829">
        <ele>125</ele>
        <time>2021-05-01T21:45:55+02:00</time>
      </trkpt>
      <trkpt lat="43.60789" lon="3.67842">
        <ele>129</ele>
        <time>2021-05-01T21:46:00+02:00</time>
      </trkpt>
      <trkpt lat="43.60774" lon="3.67865">
        <ele>128</ele>
        <time>2021-05-01T21:46:05+02:00</time>
      </trkpt>
      <trkpt lat="43.60762" lon="3.6786">
        <ele>129</ele>
        <time>2021-05-01T21:46:10+02:00</time>
      </trkpt>
      <trkpt lat="43.6076" lon="3.6784">
        <ele>132</ele>
        <time>2021-05-01T21:46:15+02:00</time>
      </trkpt>
      <trkpt lat="43.60758" lon="3.67818">
        <ele>135</ele>
        <time>2021-05-01T21:46:20+02:00</time>
      </trkpt>
      <trkpt lat="43.60755" lon="3.67797">
        <ele>136</ele>
        <time>2021-05-01T21:46:25+02:00</time>
      </trkpt>
      <trkpt lat="43.60749" lon="3.67775">
        <ele>138</ele>
        <time>2021-05-01T21:46:30+02:00</time>
      </trkpt>
      <trkpt lat="43.60741" lon="3.67745">
        <ele>141</ele>
        <time>2021-05-01T21:46:35+02:00</time>
      </trkpt>
      <trkpt lat="43.60738" lon="3.67723">
        <ele>142</ele>
        <time>2021-05-01T21:46:40+02:00</time>
      </trkpt>
      <trkpt lat="43.60734" lon="3.67706">
        <ele>144</ele>
        <time>2021-05-01T21:46:45+02:00</time>
      </trkpt>
      <trkpt lat="43.60726" lon="3.67673">
        <ele>146</ele>
        <time>2021-05-01T21:46:50+02:00</time>
      </trkpt>
      <trkpt lat="43.60719" lon="3.67652">
        <ele>146</ele>
        <time>2021-05-01T21:46:55+02:00</time>
      </trkpt>
      <trkpt lat="43.60713" lon="3.67633">
        <ele>147</ele>
        <time>2021-05-01T21:47:00+02:00</time>
      </trkpt>
      <trkpt lat="43.60705" lon="3.67614">
        <ele>147</ele>
        <time>2021-05-01T21:47:05+02:00</time>
      </trkpt>
      <trkpt lat="43.6069" lon="3.67593">
        <ele>146</ele>
        <time>2021-05-01T21:47:10+02:00</time>
      </trkpt>
      <trkpt lat="43.60678" lon="3.67579">
        <ele>144</ele>
        <time>2021-05-01T21:47:15+02:00</time>
      </trkpt>
      <trkpt lat="43.60668" lon="3.67569">
        <ele>143</ele>
        <time>2021-05-01T21:47:20+02:00</time>
      </trkpt>
      <trkpt lat="43.60653" lon="3.67553">
        <ele>141</ele>
        <time>2021-05-01T21:47:25+02:00</time>
      </trkpt>
      <trkpt lat="43.60637" lon="3.67542">
        <ele>139</ele>
        <time>2021-05-01T21:47:30+02:00</time>
      </trkpt>
      <trkpt lat="43.60609" lon="3.67521">
        <ele>139</ele>
        <time>2021-05-01T21:47:35+02:00</time>
      </trkpt>
      <trkpt lat="43.60593" lon="3.67502">
        <ele>140</ele>
        <time>2021-05-01T21:47:40+02:00</time>
      </trkpt>
      <trkpt lat="43.6057" lon="3.67498">
        <ele>144</ele>
        <time>2021-05-01T21:47:45+02:00</time>
      </trkpt>
      <trkpt lat="43.6057" lon="3.67527">
        <ele>146</ele>
        <time>2021-05-01T21:47:50+02:00</time>
      </trkpt>
      <trkpt lat="43.6056" lon="3.67491">
        <ele>147</ele>
        <time>2021-05-01T21:47:55+02:00</time>
      </trkpt>
      <trkpt lat="43.60549" lon="3.67453">
        <ele>151</ele>
        <time>2021-05-01T21:48:00+02:00</time>
      </trkpt>
      <trkpt lat="43.60535" lon="3.67419">
        <ele>155</ele>
        <time>2021-05-01T21:48:05+02:00</time>
      </trkpt>
      <trkpt lat="43.60522" lon="3.67383">
        <ele>155</ele>
        <time>2021-05-01T21:48:10+02:00</time>
      </trkpt>
      <trkpt lat="43.60503" lon="3.67335">
        <ele>154</ele>
        <time>2021-05-01T21:48:15+02:00</time>
      </trkpt>
      <trkpt lat="43.60489" lon="3.6729">
        <ele>153</ele>
        <time>2021-05-01T21:48:20+02:00</time>
      </trkpt>
      <trkpt lat="43.60462" lon="3.67217">
        <ele>151</ele>
        <time>2021-05-01T21:48:25+02:00</time>
      </trkpt>
      <trkpt lat="43.60434" lon="3.67139">
        <ele>157</ele>
        <time>2021-05-01T21:48:30+02:00</time>
      </trkpt>
      <trkpt lat="43.6043" lon="3.67108">
        <ele>159</ele>
        <time>2021-05-01T21:48:35+02:00</time>
      </trkpt>
      <trkpt lat="43.60419" lon="3.67081">
        <ele>160</ele>
        <time>2021-05-01T21:48:40+02:00</time>
      </trkpt>
      <trkpt lat="43.60409" lon="3.67053">
        <ele>161</ele>
        <time>2021-05-01T21:48:45+02:00</time>
      </trkpt>
      <trkpt lat="43.60404" lon="3.67038">
        <ele>163</ele>
        <time>2021-05-01T21:48:50+02:00</time>
      </trkpt>
      <trkpt lat="43.60396" lon="3.67023">
        <ele>164</ele>
        <time>2021-05-01T21:48:55+02:00</time>
      </trkpt>
      <trkpt lat="43.60392" lon="3.67009">
        <ele>164</ele>
        <time>2021-05-01T21:49:00+02:00</time>
      </trkpt>
      <trkpt lat="43.60378" lon="3.66971">
        <ele>166</ele>
        <time>2021-05-01T21:49:05+02:00</time>
      </trkpt>
      <trkpt lat="43.60364" lon="3.66929">
        <ele>169</ele>
        <time>2021-05-01T21:49:10+02:00</time>
      </trkpt>
      <trkpt lat="43.60354" lon="3.66912">
        <ele>170</ele>
        <time>2021-05-01T21:49:15+02:00</time>
      </trkpt>
      <trkpt lat="43.60345" lon="3.66892">
        <ele>171</ele>
        <time>2021-05-01T21:49:20+02:00</time>
      </trkpt>
      <trkpt lat="43.60335" lon="3.66814">
        <ele>173</ele>
        <time>2021-05-01T21:49:25+02:00</time>
      </trkpt>
      <trkpt lat="43.6033" lon="3.66774">
        <ele>175</ele>
        <time>2021-05-01T21:49:30+02:00</time>
      </trkpt>
      <trkpt lat="43.60326" lon="3.66732">
        <ele>178</ele>
        <time>2021-05-01T21:49:35+02:00</time>
      </trkpt>
      <trkpt lat="43.60324" lon="3.66714">
        <ele>180</ele>
        <time>2021-05-01T21:49:40+02:00</time>
      </trkpt>
      <trkpt lat="43.60304" lon="3.66713">
        <ele>182</ele>
        <time>2021-05-01T21:49:45+02:00</time>
      </trkpt>
      <trkpt lat="43.60295" lon="3.66752">
        <ele>185</ele>
        <time>2021-05-01T21:49:50+02:00</time>
      </trkpt>
      <trkpt lat="43.60281" lon="3.66824">
        <ele>191</ele>
        <time>2021-05-01T21:49:55+02:00</time>
      </trkpt>
      <trkpt lat="43.60261" lon="3.66823">
        <ele>193</ele>
        <time>2021-05-01T21:50:00+02:00</time>
      </trkpt>
      <trkpt lat="43.60251" lon="3.66791">
        <ele>193</ele>
        <time>2021-05-01T21:50:05+02:00</time>
      </trkpt>
      <trkpt lat="43.60244" lon="3.66759">
        <ele>193</ele>
        <time>2021-05-01T21:50:10+02:00</time>
      </trkpt>
      <trkpt lat="43.60237" lon="3.6673">
        <ele>194</ele>
        <time>2021-05-01T21:50:15+02:00</time>
      </trkpt>
      <trkpt lat="43.60246" lon="3.66721">
        <ele>195</ele>
        <time>2021-05-01T21:50:20+02:00</time>
      </trkpt>
      <trkpt lat="43.60255" lon="3.66699">
        <ele>196</ele>
        <time>2021-05-01T21:50:25+02:00</time>
      </trkpt>
      <trkpt lat="43.60255" lon="3.66671">
        <ele>198</ele>
        <time>2021-05-01T21:50:30+02:00</time>
      </trkpt>
      <trkpt lat="43.60253" lon="3.66643">
        <ele>201</ele>
        <time>2021-05-01T21:50:35+02:00</time>
      </trkpt>
      <trkpt lat="43.60248" lon="3.66623">
        <ele>205</ele>
        <time>2021-05-01T21:50:40+02:00</time>
      </trkpt>
      <trkpt lat="43.60232" lon="3.66577">
        <ele>212</ele>
        <time>2021-05-01T21:50:45+02:00</time>
      </trkpt>
      <trkpt lat="43.60221" lon="3.66555">
        <ele>214</ele>
        <time>2021-05-01T21:50:50+02:00</time>
      </trkpt>
      <trkpt lat="43.60209" lon="3.66526">
        <ele>218</ele>
        <time>2021-05-01T21:50:55+02:00</time>
      </trkpt>
      <trkpt lat="43.60199" lon="3.66482">
        <ele>226</ele>
        <time>2021-05-01T21:51:00+02:00</time>
      </trkpt>
      <trkpt lat="43.60193" lon="3.66464">
        <ele>230</ele>
        <time>2021-05-01T21:51:05+02:00</time>
      </trkpt>
      <trkpt lat="43.60187" lon="3.66449">
        <ele>233</ele>
        <time>2021-05-01T21:51:10+02:00</time>
      </trkpt>
      <trkpt lat="43.60198" lon="3.66428">
        <ele>243</ele>
        <time>2021-05-01T21:51:15+02:00</time>
      </trkpt>
      <trkpt lat="43.60218" lon="3.66435">
        <ele>244</ele>
        <time>2021-05-01T21:51:20+02:00</time>
      </trkpt>
      <trkpt lat="43.60236" lon="3.66441">
        <ele>245</ele>
        <time>2021-05-01T21:51:25+02:00</time>
      </trkpt>
      <trkpt lat="43.60255" lon="3.66427">
        <ele>252</ele>
        <time>2021-05-01T21:51:30+02:00</time>
      </trkpt>
      <trkpt lat="43.60238" lon="3.66409">
        <ele>256</ele>
        <time>2021-05-01T21:51:35+02:00</time>
      </trkpt>
      <trkpt lat="43.60227" lon="3.66394">
        <ele>258</ele>
        <time>2021-05-01T21:51:40+02:00</time>
      </trkpt>
      <trkpt lat="43.60218" lon="3.6638">
        <ele>261</ele>
        <time>2021-05-01T21:51:45+02:00</time>
      </trkpt>
      <trkpt lat="43.60205" lon="3.66357">
        <ele>264</ele>
        <time>2021-05-01T21:51:50+02:00</time>
      </trkpt>
      <trkpt lat="43.60187" lon="3.66347">
        <ele>263</ele>
        <time>2021-05-01T21:51:55+02:00</time>
      </trkpt>
      <trkpt lat="43.6017" lon="3.66327">
        <ele>264</ele>
        <time>2021-05-01T21:52:00+02:00</time>
      </trkpt>
      <trkpt lat="43.60171" lon="3.66306">
        <ele>266</ele>
        <time>2021-05-01T21:52:05+02:00</time>
      </trkpt>
      <trkpt lat="43.60172" lon="3.66286">
        <ele>268</ele>
        <time>2021-05-01T21:52:10+02:00</time>
      </trkpt>
      <trkpt lat="43.60189" lon="3.66281">
        <ele>269</ele>
        <time>2021-05-01T21:52:15+02:00</time>
      </trkpt>
      <trkpt lat="43.60203" lon="3.66288">
        <ele>270</ele>
        <time>2021-05-01T21:52:20+02:00</time>
      </trkpt>
      <trkpt lat="43.60215" lon="3.66281">
        <ele>271</ele>
        <time>2021-05-01T21:52:25+02:00</time>
      </trkpt>
      <trkpt lat="43.60219" lon="3.66266">
        <ele>271</ele>
        <time>2021-05-01T21:52:30+02:00</time>
      </trkpt>
      <trkpt lat="43.60205" lon="3.66228">
        <ele>272</ele>
        <time>2021-05-01T21:52:35+02:00</time>
      </trkpt>
      <trkpt lat="43.60182" lon="3.66169">
        <ele>274</ele>
        <time>2021-05-01T21:52:40+02:00</time>
      </trkpt>
      <trkpt lat="43.60157" lon="3.66109">
        <ele>274</ele>
        <time>2021-05-01T21:52:45+02:00</time>
      </trkpt>
      <trkpt lat="43.60138" lon="3.66053">
        <ele>275</ele>
        <time>2021-05-01T21:52:50+02:00</time>
      </trkpt>
      <trkpt lat="43.60117" lon="3.65992">
        <ele>277</ele>
        <time>2021-05-01T21:52:55+02:00</time>
      </trkpt>
      <trkpt lat="43.601" lon="3.65938">
        <ele>280</ele>
        <time>2021-05-01T21:53:00+02:00</time>
      </trkpt>
      <trkpt lat="43.60084" lon="3.65891">
        <ele>284</ele>
        <time>2021-05-01T21:53:05+02:00</time>
      </trkpt>
      <trkpt lat="43.60074" lon="3.65877">
        <ele>285</ele>
        <time>2021-05-01T21:53:10+02:00</time>
      </trkpt>
      <trkpt lat="43.60057" lon="3.65867">
        <ele>285</ele>
        <time>2021-05-01T21:53:15+02:00</time>
      </trkpt>
      <trkpt lat="43.60043" lon="3.65866">
        <ele>286</ele>
        <time>2021-05-01T21:53:20+02:00</time>
      </trkpt>
      <trkpt lat="43.60025" lon="3.65871">
        <ele>287</ele>
        <time>2021-05-01T21:53:25+02:00</time>
      </trkpt>
      <trkpt lat="43.6001" lon="3.65854">
        <ele>287</ele>
        <time>2021-05-01T21:53:30+02:00</time>
      </trkpt>
      <trkpt lat="43.59994" lon="3.65843">
        <ele>286</ele>
        <time>2021-05-01T21:53:35+02:00</time>
      </trkpt>
      <trkpt lat="43.59984" lon="3.65836">
        <ele>285</ele>
        <time>2021-05-01T21:53:40+02:00</time>
      </trkpt>
      <trkpt lat="43.59968" lon="3.65823">
        <ele>283</ele>
        <time>2021-05-01T21:53:45+02:00</time>
      </trkpt>
      <trkpt lat="43.59946" lon="3.65819">
        <ele>279</ele>
        <time>2021-05-01T21:53:50+02:00</time>
      </trkpt>
      <trkpt lat="43.5993" lon="3.65816">
        <ele>276</ele>
        <time>2021-05-01T21:53:55+02:00</time>
      </trkpt>
      <trkpt lat="43.59914" lon="3.65814">
        <ele>274</ele>
        <time>2021-05-01T21:54:00+02:00</time>
      </trkpt>
      <trkpt lat="43.59893" lon="3.65813">
        <ele>272</ele>
        <time>2021-05-01T21:54:05+02:00</time>
      </trkpt>
      <trkpt lat="43.59877" lon="3.65817">
        <ele>271</ele>
        <time>2021-05-01T21:54:10+02:00</time>
      </trkpt>
      <trkpt lat="43.59858" lon="3.65812">
        <ele>270</ele>
        <time>2021-05-01T21:54:15+02:00</time>
      </trkpt>
      <trkpt lat="43.59845" lon="3.65791">
        <ele>270</ele>
        <time>2021-05-01T21:54:20+02:00</time>
      </trkpt>
      <trkpt lat="43.59839" lon="3.65778">
        <ele>270</ele>
        <time>2021-05-01T21:54:25+02:00</time>
      </trkpt>
      <trkpt lat="43.59834" lon="3.65764">
        <ele>270</ele>
        <time>2021-05-01T21:54:30+02:00</time>
      </trkpt>
      <trkpt lat="43.59826" lon="3.65752">
        <ele>270</ele>
        <time>2021-05-01T21:54:35+02:00</time>
      </trkpt>
      <trkpt lat="43.59814" lon="3.65742">
        <ele>270</ele>
        <time>2021-05-01T21:54:40+02:00</time>
      </trkpt>
      <trkpt lat="43.59807" lon="3.65733">
        <ele>270</ele>
        <time>2021-05-01T21:54:45+02:00</time>
      </trkpt>
      <trkpt lat="43.59783" lon="3.65715">
        <ele>270</ele>
        <time>2021-05-01T21:54:50+02:00</time>
      </trkpt>
      <trkpt lat="43.59769" lon="3.65707">
        <ele>270</ele>
        <time>2021-05-01T21:54:55+02:00</time>
      </trkpt>
      <trkpt lat="43.59756" lon="3.65698">
        <ele>270</ele>
        <time>2021-05-01T21:55:00+02:00</time>
      </trkpt>
      <trkpt lat="43.59737" lon="3.65686">
        <ele>270</ele>
        <time>2021-05-01T21:55:05+02:00</time>
      </trkpt>
      <trkpt lat="43.59719" lon="3.65674">
        <ele>270</ele>
        <time>2021-05-01T21:55:10+02:00</time>
      </trkpt>
      <trkpt lat="43.59717" lon="3.65693">
        <ele>270</ele>
        <time>2021-05-01T21:55:15+02:00</time>
      </trkpt>
      <trkpt lat="43.59718" lon="3.65711">
        <ele>270</ele>
        <time>2021-05-01T21:55:20+02:00</time>
      </trkpt>
      <trkpt lat="43.59709" lon="3.65753">
        <ele>270</ele>
        <time>2021-05-01T21:55:25+02:00</time>
      </trkpt>
      <trkpt lat="43.59704" lon="3.65792">
        <ele>270</ele>
        <time>2021-05-01T21:55:30+02:00</time>
      </trkpt>
      <trkpt lat="43.59695" lon="3.65824">
        <ele>270</ele>
        <time>2021-05-01T21:55:35+02:00</time>
      </trkpt>
      <trkpt lat="43.59691" lon="3.65843">
        <ele>270</ele>
        <time>2021-05-01T21:55:40+02:00</time>
      </trkpt>
      <trkpt lat="43.59693" lon="3.65869">
        <ele>270</ele>
        <time>2021-05-01T21:55:45+02:00</time>
      </trkpt>
      <trkpt lat="43.597" lon="3.6589">
        <ele>270</ele>
        <time>2021-05-01T21:55:50+02:00</time>
      </trkpt>
      <trkpt lat="43.59702" lon="3.65918">
        <ele>270</ele>
        <time>2021-05-01T21:55:55+02:00</time>
      </trkpt>
      <trkpt lat="43.59694" lon="3.65937">
        <ele>270</ele>
        <time>2021-05-01T21:56:00+02:00</time>
      </trkpt>
      <trkpt lat="43.59687" lon="3.65954">
        <ele>270</ele>
        <time>2021-05-01T21:56:05+02:00</time>
      </trkpt>
      <trkpt lat="43.59667" lon="3.65961">
        <ele>270</ele>
        <time>2021-05-01T21:56:10+02:00</time>
      </trkpt>
      <trkpt lat="43.59649" lon="3.65956">
        <ele>270</ele>
        <time>2021-05-01T21:56:15+02:00</time>
      </trkpt>
      <trkpt lat="43.59632" lon="3.65955">
        <ele>270</ele>
        <time>2021-05-01T21:56:20+02:00</time>
      </trkpt>
      <trkpt lat="43.59618" lon="3.6594">
        <ele>270</ele>
        <time>2021-05-01T21:56:25+02:00</time>
      </trkpt>
      <trkpt lat="43.59603" lon="3.65938">
        <ele>270</ele>
        <time>2021-05-01T21:56:30+02:00</time>
      </trkpt>
      <trkpt lat="43.59584" lon="3.65945">
        <ele>270</ele>
        <time>2021-05-01T21:56:35+02:00</time>
      </trkpt>
      <trkpt lat="43.59575" lon="3.6597">
        <ele>270</ele>
        <time>2021-05-01T21:56:40+02:00</time>
      </trkpt>
      <trkpt lat="43.59555" lon="3.65982">
        <ele>270</ele>
        <time>2021-05-01T21:56:45+02:00</time>
      </trkpt>
      <trkpt lat="43.59546" lon="3.65996">
        <ele>270</ele>
        <time>2021-05-01T21:56:50+02:00</time>
      </trkpt>
      <trkpt lat="43.59536" lon="3.66016">
        <ele>270</ele>
        <time>2021-05-01T21:56:55+02:00</time>
      </trkpt>
      <trkpt lat="43.59524" lon="3.66032">
        <ele>270</ele>
        <time>2021-05-01T21:57:00+02:00</time>
      </trkpt>
      <trkpt lat="43.59509" lon="3.66051">
        <ele>270</ele>
        <time>2021-05-01T21:57:05+02:00</time>
      </trkpt>
      <trkpt lat="43.59496" lon="3.66072">
        <ele>271</ele>
        <time>2021-05-01T21:57:10+02:00</time>
      </trkpt>
      <trkpt lat="43.59491" lon="3.66094">
        <ele>272</ele>
        <time>2021-05-01T21:57:15+02:00</time>
      </trkpt>
      <trkpt lat="43.5951" lon="3.66094">
        <ele>271</ele>
        <time>2021-05-01T21:57:20+02:00</time>
      </trkpt>
      <trkpt lat="43.59525" lon="3.66108">
        <ele>272</ele>
        <time>2021-05-01T21:57:25+02:00</time>
      </trkpt>
      <trkpt lat="43.59536" lon="3.66129">
        <ele>272</ele>
        <time>2021-05-01T21:57:30+02:00</time>
      </trkpt>
      <trkpt lat="43.59536" lon="3.66155">
        <ele>273</ele>
        <time>2021-05-01T21:57:35+02:00</time>
      </trkpt>
      <trkpt lat="43.59543" lon="3.66174">
        <ele>274</ele>
        <time>2021-05-01T21:57:40+02:00</time>
      </trkpt>
      <trkpt lat="43.59548" lon="3.66202">
        <ele>273</ele>
        <time>2021-05-01T21:57:45+02:00</time>
      </trkpt>
      <trkpt lat="43.5956" lon="3.66216">
        <ele>273</ele>
        <time>2021-05-01T21:57:50+02:00</time>
      </trkpt>
      <trkpt lat="43.5957" lon="3.66232">
        <ele>272</ele>
        <time>2021-05-01T21:57:55+02:00</time>
      </trkpt>
      <trkpt lat="43.5958" lon="3.6625">
        <ele>271</ele>
        <time>2021-05-01T21:58:00+02:00</time>
      </trkpt>
      <trkpt lat="43.5959" lon="3.66271">
        <ele>270</ele>
        <time>2021-05-01T21:58:05+02:00</time>
      </trkpt>
      <trkpt lat="43.59603" lon="3.66286">
        <ele>270</ele>
        <time>2021-05-01T21:58:10+02:00</time>
      </trkpt>
      <trkpt lat="43.59615" lon="3.66294">
        <ele>269</ele>
        <time>2021-05-01T21:58:15+02:00</time>
      </trkpt>
      <trkpt lat="43.59629" lon="3.66298">
        <ele>268</ele>
        <time>2021-05-01T21:58:20+02:00</time>
      </trkpt>
      <trkpt lat="43.59636" lon="3.66307">
        <ele>268</ele>
        <time>2021-05-01T21:58:25+02:00</time>
      </trkpt>
      <trkpt lat="43.59646" lon="3.66324">
        <ele>268</ele>
        <time>2021-05-01T21:58:30+02:00</time>
      </trkpt>
      <trkpt lat="43.59657" lon="3.66333">
        <ele>267</ele>
        <time>2021-05-01T21:58:35+02:00</time>
      </trkpt>
      <trkpt lat="43.59669" lon="3.66353">
        <ele>266</ele>
        <time>2021-05-01T21:58:40+02:00</time>
      </trkpt>
      <trkpt lat="43.59681" lon="3.66366">
        <ele>266</ele>
        <time>2021-05-01T21:58:45+02:00</time>
      </trkpt>
      <trkpt lat="43.59675" lon="3.66392">
        <ele>266</ele>
        <time>2021-05-01T21:58:50+02:00</time>
      </trkpt>
      <trkpt lat="43.59667" lon="3.66405">
        <ele>266</ele>
        <time>2021-05-01T21:58:55+02:00</time>
      </trkpt>
      <trkpt lat="43.59661" lon="3.6646">
        <ele>263</ele>
        <time>2021-05-01T21:59:00+02:00</time>
      </trkpt>
      <trkpt lat="43.59664" lon="3.66505">
        <ele>259</ele>
        <time>2021-05-01T21:59:05+02:00</time>
      </trkpt>
      <trkpt lat="43.5966" lon="3.6654">
        <ele>255</ele>
        <time>2021-05-01T21:59:10+02:00</time>
      </trkpt>
      <trkpt lat="43.59653" lon="3.66571">
        <ele>252</ele>
        <time>2021-05-01T21:59:15+02:00</time>
      </trkpt>
      <trkpt lat="43.59641" lon="3.66587">
        <ele>251</ele>
        <time>2021-05-01T21:59:20+02:00</time>
      </trkpt>
      <trkpt lat="43.59627" lon="3.66599">
        <ele>251</ele>
        <time>2021-05-01T21:59:25+02:00</time>
      </trkpt>
      <trkpt lat="43.59586" lon="3.66642">
        <ele>246</ele>
        <time>2021-05-01T21:59:30+02:00</time>
      </trkpt>
      <trkpt lat="43.59571" lon="3.66663">
        <ele>242</ele>
        <time>2021-05-01T21:59:35+02:00</time>
      </trkpt>
      <trkpt lat="43.59557" lon="3.66685">
        <ele>238</ele>
        <time>2021-05-01T21:59:40+02:00</time>
      </trkpt>
      <trkpt lat="43.59542" lon="3.66704">
        <ele>235</ele>
        <time>2021-05-01T21:59:45+02:00</time>
      </trkpt>
      <trkpt lat="43.59532" lon="3.66728">
        <ele>231</ele>
        <time>2021-05-01T21:59:50+02:00</time>
      </trkpt>
      <trkpt lat="43.59519" lon="3.6675">
        <ele>226</ele>
        <time>2021-05-01T21:59:55+02:00</time>
      </trkpt>
      <trkpt lat="43.595" lon="3.66765">
        <ele>223</ele>
        <time>2021-05-01T22:00:00+02:00</time>
      </trkpt>
      <trkpt lat="43.5949" lon="3.66785">
        <ele>218</ele>
        <time>2021-05-01T22:00:05+02:00</time>
      </trkpt>
      <trkpt lat="43.5947" lon="3.66803">
        <ele>214</ele>
        <time>2021-05-01T22:00:10+02:00</time>
      </trkpt>
      <trkpt lat="43.59455" lon="3.66819">
        <ele>211</ele>
        <time>2021-05-01T22:00:15+02:00</time>
      </trkpt>
      <trkpt lat="43.59448" lon="3.66846">
        <ele>210</ele>
        <time>2021-05-01T22:00:20+02:00</time>
      </trkpt>
      <trkpt lat="43.59442" lon="3.66866">
        <ele>208</ele>
        <time>2021-05-01T22:00:25+02:00</time>
      </trkpt>
      <trkpt lat="43.5944" lon="3.66894">
        <ele>207</ele>
        <time>2021-05-01T22:00:30+02:00</time>
      </trkpt>
      <trkpt lat="43.59425" lon="3.66917">
        <ele>206</ele>
        <time>2021-05-01T22:00:35+02:00</time>
      </trkpt>
      <trkpt lat="43.59408" lon="3.66964">
        <ele>207</ele>
        <time>2021-05-01T22:00:40+02:00</time>
      </trkpt>
      <trkpt lat="43.59399" lon="3.66988">
        <ele>207</ele>
        <time>2021-05-01T22:00:45+02:00</time>
      </trkpt>
      <trkpt lat="43.59393" lon="3.6701">
        <ele>208</ele>
        <time>2021-05-01T22:00:50+02:00</time>
      </trkpt>
      <trkpt lat="43.59394" lon="3.67038">
        <ele>210</ele>
        <time>2021-05-01T22:00:55+02:00</time>
      </trkpt>
      <trkpt lat="43.5938" lon="3.67069">
        <ele>210</ele>
        <time>2021-05-01T22:01:00+02:00</time>
      </trkpt>
      <trkpt lat="43.59376" lon="3.67097">
        <ele>211</ele>
        <time>2021-05-01T22:01:05+02:00</time>
      </trkpt>
      <trkpt lat="43.59376" lon="3.67119">
        <ele>212</ele>
        <time>2021-05-01T22:01:10+02:00</time>
      </trkpt>
      <trkpt lat="43.59375" lon="3.67137">
        <ele>213</ele>
        <time>2021-05-01T22:01:15+02:00</time>
      </trkpt>
      <trkpt lat="43.59369" lon="3.6717">
        <ele>214</ele>
        <time>2021-05-01T22:01:20+02:00</time>
      </trkpt>
      <trkpt lat="43.59361" lon="3.67193">
        <ele>215</ele>
        <time>2021-05-01T22:01:25+02:00</time>
      </trkpt>
      <trkpt lat="43.59357" lon="3.67215">
        <ele>215</ele>
        <time>2021-05-01T22:01:30+02:00</time>
      </trkpt>
      <trkpt lat="43.59358" lon="3.67239">
        <ele>215</ele>
        <time>2021-05-01T22:01:35+02:00</time>
      </trkpt>
      <trkpt lat="43.59364" lon="3.67266">
        <ele>215</ele>
        <time>2021-05-01T22:01:40+02:00</time>
      </trkpt>
      <trkpt lat="43.59365" lon="3.67292">
        <ele>215</ele>
        <time>2021-05-01T22:01:45+02:00</time>
      </trkpt>
      <trkpt lat="43.59361" lon="3.67315">
        <ele>215</ele>
        <time>2021-05-01T22:01:50+02:00</time>
      </trkpt>
      <trkpt lat="43.59356" lon="3.67336">
        <ele>215</ele>
        <time>2021-05-01T22:01:55+02:00</time>
      </trkpt>
      <trkpt lat="43.59356" lon="3.67362">
        <ele>215</ele>
        <time>2021-05-01T22:02:00+02:00</time>
      </trkpt>
      <trkpt lat="43.59353" lon="3.67388">
        <ele>212</ele>
        <time>2021-05-01T22:02:05+02:00</time>
      </trkpt>
      <trkpt lat="43.59345" lon="3.6741">
        <ele>209</ele>
        <time>2021-05-01T22:02:10+02:00</time>
      </trkpt>
      <trkpt lat="43.59329" lon="3.67438">
        <ele>205</ele>
        <time>2021-05-01T22:02:15+02:00</time>
      </trkpt>
      <trkpt lat="43.59313" lon="3.67453">
        <ele>202</ele>
        <time>2021-05-01T22:02:20+02:00</time>
      </trkpt>
      <trkpt lat="43.59296" lon="3.67465">
        <ele>200</ele>
        <time>2021-05-01T22:02:25+02:00</time>
      </trkpt>
      <trkpt lat="43.59286" lon="3.67474">
        <ele>199</ele>
        <time>2021-05-01T22:02:30+02:00</time>
      </trkpt>
      <trkpt lat="43.59275" lon="3.67481">
        <ele>197</ele>
        <time>2021-05-01T22:02:35+02:00</time>
      </trkpt>
      <trkpt lat="43.59253" lon="3.67496">
        <ele>194</ele>
        <time>2021-05-01T22:02:40+02:00</time>
      </trkpt>
      <trkpt lat="43.59239" lon="3.67513">
        <ele>192</ele>
        <time>2021-05-01T22:02:45+02:00</time>
      </trkpt>
      <trkpt lat="43.59229" lon="3.67531">
        <ele>189</ele>
        <time>2021-05-01T22:02:50+02:00</time>
      </trkpt>
      <trkpt lat="43.59226" lon="3.67546">
        <ele>188</ele>
        <time>2021-05-01T22:02:55+02:00</time>
      </trkpt>
      <trkpt lat="43.5922" lon="3.67561">
        <ele>186</ele>
        <time>2021-05-01T22:03:00+02:00</time>
      </trkpt>
      <trkpt lat="43.59212" lon="3.67599">
        <ele>183</ele>
        <time>2021-05-01T22:03:05+02:00</time>
      </trkpt>
      <trkpt lat="43.5922" lon="3.67646">
        <ele>183</ele>
        <time>2021-05-01T22:03:10+02:00</time>
      </trkpt>
      <trkpt lat="43.5923" lon="3.67679">
        <ele>184</ele>
        <time>2021-05-01T22:03:15+02:00</time>
      </trkpt>
      <trkpt lat="43.59236" lon="3.67712">
        <ele>184</ele>
        <time>2021-05-01T22:03:20+02:00</time>
      </trkpt>
      <trkpt lat="43.59233" lon="3.67734">
        <ele>183</ele>
        <time>2021-05-01T22:03:25+02:00</time>
      </trkpt>
      <trkpt lat="43.59222" lon="3.67758">
        <ele>180</ele>
        <time>2021-05-01T22:03:30+02:00</time>
      </trkpt>
      <trkpt lat="43.59207" lon="3.67782">
        <ele>176</ele>
        <time>2021-05-01T22:03:35+02:00</time>
      </trkpt>
      <trkpt lat="43.59197" lon="3.67801">
        <ele>175</ele>
        <time>2021-05-01T22:03:40+02:00</time>
      </trkpt>
      <trkpt lat="43.59184" lon="3.67814">
        <ele>174</ele>
        <time>2021-05-01T22:03:45+02:00</time>
      </trkpt>
      <trkpt lat="43.59147" lon="3.67833">
        <ele>170</ele>
        <time>2021-05-01T22:03:50+02:00</time>
      </trkpt>
      <trkpt lat="43.59116" lon="3.67833">
        <ele>166</ele>
        <time>2021-05-01T22:03:55+02:00</time>
      </trkpt>
      <trkpt lat="43.5909" lon="3.67839">
        <ele>163</ele>
        <time>2021-05-01T22:04:00+02:00</time>
      </trkpt>
      <trkpt lat="43.59067" lon="3.67857">
        <ele>164</ele>
        <time>2021-05-01T22:04:05+02:00</time>
      </trkpt>
      <trkpt lat="43.59039" lon="3.67884">
        <ele>165</ele>
        <time>2021-05-01T22:04:10+02:00</time>
      </trkpt>
      <trkpt lat="43.59013" lon="3.67914">
        <ele>164</ele>
        <time>2021-05-01T22:04:15+02:00</time>
      </trkpt>
      <trkpt lat="43.58999" lon="3.67934">
        <ele>162</ele>
        <time>2021-05-01T22:04:20+02:00</time>
      </trkpt>
      <trkpt lat="43.58986" lon="3.67955">
        <ele>161</ele>
        <time>2021-05-01T22:04:25+02:00</time>
      </trkpt>
      <trkpt lat="43.58973" lon="3.67992">
        <ele>159</ele>
        <time>2021-05-01T22:04:30+02:00</time>
      </trkpt>
      <trkpt lat="43.58966" lon="3.68015">
        <ele>157</ele>
        <time>2021-05-01T22:04:35+02:00</time>
      </trkpt>
      <trkpt lat="43.58964" lon="3.68032">
        <ele>156</ele>
        <time>2021-05-01T22:04:40+02:00</time>
      </trkpt>
      <trkpt lat="43.58944" lon="3.68096">
        <ele>150</ele>
        <time>2021-05-01T22:04:45+02:00</time>
      </trkpt>
      <trkpt lat="43.58927" lon="3.68161">
        <ele>145</ele>
        <time>2021-05-01T22:04:50+02:00</time>
      </trkpt>
      <trkpt lat="43.58925" lon="3.68195">
        <ele>143</ele>
        <time>2021-05-01T22:04:55+02:00</time>
      </trkpt>
      <trkpt lat="43.58922" lon="3.68226">
        <ele>141</ele>
        <time>2021-05-01T22:05:00+02:00</time>
      </trkpt>
      <trkpt lat="43.58927" lon="3.6825">
        <ele>140</ele>
        <time>2021-05-01T22:05:05+02:00</time>
      </trkpt>
      <trkpt lat="43.58935" lon="3.68271">
        <ele>138</ele>
        <time>2021-05-01T22:05:10+02:00</time>
      </trkpt>
      <trkpt lat="43.58965" lon="3.68307">
        <ele>135</ele>
        <time>2021-05-01T22:05:15+02:00</time>
      </trkpt>
      <trkpt lat="43.58996" lon="3.68339">
        <ele>130</ele>
        <time>2021-05-01T22:05:20+02:00</time>
      </trkpt>
      <trkpt lat="43.59012" lon="3.68344">
        <ele>130</ele>
        <time>2021-05-01T22:05:25+02:00</time>
      </trkpt>
      <trkpt lat="43.59034" lon="3.68345">
        <ele>132</ele>
        <time>2021-05-01T22:05:30+02:00</time>
      </trkpt>
      <trkpt lat="43.59037" lon="3.68353">
        <ele>133</ele>
        <time>2021-05-01T22:05:35+02:00</time>
      </trkpt>
      <trkpt lat="43.59026" lon="3.68374">
        <ele>133</ele>
        <time>2021-05-01T22:05:40+02:00</time>
      </trkpt>
      <trkpt lat="43.5901" lon="3.684">
        <ele>133</ele>
        <time>2021-05-01T22:05:45+02:00</time>
      </trkpt>
      <trkpt lat="43.58995" lon="3.68421">
        <ele>133</ele>
        <time>2021-05-01T22:05:50+02:00</time>
      </trkpt>
      <trkpt lat="43.58988" lon="3.6844">
        <ele>135</ele>
        <time>2021-05-01T22:05:55+02:00</time>
      </trkpt>
      <trkpt lat="43.58984" lon="3.68456">
        <ele>136</ele>
        <time>2021-05-01T22:06:00+02:00</time>
      </trkpt>
      <trkpt lat="43.58988" lon="3.68482">
        <ele>136</ele>
        <time>2021-05-01T22:06:05+02:00</time>
      </trkpt>
      <trkpt lat="43.58994" lon="3.68499">
        <ele>135</ele>
        <time>2021-05-01T22:06:10+02:00</time>
      </trkpt>
      <trkpt lat="43.59015" lon="3.68524">
        <ele>134</ele>
        <time>2021-05-01T22:06:15+02:00</time>
      </trkpt>
      <trkpt lat="43.59037" lon="3.68539">
        <ele>135</ele>
        <time>2021-05-01T22:06:20+02:00</time>
      </trkpt>
      <trkpt lat="43.59069" lon="3.68571">
        <ele>136</ele>
        <time>2021-05-01T22:06:25+02:00</time>
      </trkpt>
      <trkpt lat="43.59108" lon="3.6861">
        <ele>140</ele>
        <time>2021-05-01T22:06:30+02:00</time>
      </trkpt>
      <trkpt lat="43.5914" lon="3.68632">
        <ele>142</ele>
        <time>2021-05-01T22:06:35+02:00</time>
      </trkpt>
      <trkpt lat="43.59154" lon="3.68656">
        <ele>144</ele>
        <time>2021-05-01T22:06:40+02:00</time>
      </trkpt>
      <trkpt lat="43.59152" lon="3.6868">
        <ele>145</ele>
        <time>2021-05-01T22:06:45+02:00</time>
      </trkpt>
      <trkpt lat="43.5916" lon="3.68708">
        <ele>146</ele>
        <time>2021-05-01T22:06:50+02:00</time>
      </trkpt>
      <trkpt lat="43.59184" lon="3.6877">
        <ele>150</ele>
        <time>2021-05-01T22:06:55+02:00</time>
      </trkpt>
      <trkpt lat="43.592" lon="3.68823">
        <ele>151</ele>
        <time>2021-05-01T22:07:00+02:00</time>
      </trkpt>
      <trkpt lat="43.59219" lon="3.68821">
        <ele>153</ele>
        <time>2021-05-01T22:07:05+02:00</time>
      </trkpt>
      <trkpt lat="43.59222" lon="3.68809">
        <ele>155</ele>
        <time>2021-05-01T22:07:10+02:00</time>
      </trkpt>
      <trkpt lat="43.59223" lon="3.68747">
        <ele>160</ele>
        <time>2021-05-01T22:07:15+02:00</time>
      </trkpt>
      <trkpt lat="43.59227" lon="3.68719">
        <ele>162</ele>
        <time>2021-05-01T22:07:20+02:00</time>
      </trkpt>
      <trkpt lat="43.59233" lon="3.68695">
        <ele>163</ele>
        <time>2021-05-01T22:07:25+02:00</time>
      </trkpt>
      <trkpt lat="43.59246" lon="3.68669">
        <ele>163</ele>
        <time>2021-05-01T22:07:30+02:00</time>
      </trkpt>
      <trkpt lat="43.59259" lon="3.68656">
        <ele>164</ele>
        <time>2021-05-01T22:07:35+02:00</time>
      </trkpt>
      <trkpt lat="43.59286" lon="3.68637">
        <ele>168</ele>
        <time>2021-05-01T22:07:40+02:00</time>
      </trkpt>
      <trkpt lat="43.59305" lon="3.68623">
        <ele>171</ele>
        <time>2021-05-01T22:07:45+02:00</time>
      </trkpt>
      <trkpt lat="43.59326" lon="3.68629">
        <ele>174</ele>
        <time>2021-05-01T22:07:50+02:00</time>
      </trkpt>
      <trkpt lat="43.59345" lon="3.68621">
        <ele>176</ele>
        <time>2021-05-01T22:07:55+02:00</time>
      </trkpt>
      <trkpt lat="43.59357" lon="3.68629">
        <ele>177</ele>
        <time>2021-05-01T22:08:00+02:00</time>
      </trkpt>
      <trkpt lat="43.59366" lon="3.68645">
        <ele>178</ele>
        <time>2021-05-01T22:08:05+02:00</time>
      </trkpt>
      <trkpt lat="43.59375" lon="3.68655">
        <ele>179</ele>
        <time>2021-05-01T22:08:10+02:00</time>
      </trkpt>
      <trkpt lat="43.59389" lon="3.6866">
        <ele>180</ele>
        <time>2021-05-01T22:08:15+02:00</time>
      </trkpt>
      <trkpt lat="43.59423" lon="3.68665">
        <ele>180</ele>
        <time>2021-05-01T22:08:20+02:00</time>
      </trkpt>
      <trkpt lat="43.59439" lon="3.68672">
        <ele>180</ele>
        <time>2021-05-01T22:08:25+02:00</time>
      </trkpt>
      <trkpt lat="43.59469" lon="3.68691">
        <ele>179</ele>
        <time>2021-05-01T22:08:30+02:00</time>
      </trkpt>
      <trkpt lat="43.59481" lon="3.68695">
        <ele>179</ele>
        <time>2021-05-01T22:08:35+02:00</time>
      </trkpt>
      <trkpt lat="43.59527" lon="3.68701">
        <ele>175</ele>
        <time>2021-05-01T22:08:40+02:00</time>
      </trkpt>
      <trkpt lat="43.59541" lon="3.68709">
        <ele>174</ele>
        <time>2021-05-01T22:08:45+02:00</time>
      </trkpt>
      <trkpt lat="43.59557" lon="3.68721">
        <ele>171</ele>
        <time>2021-05-01T22:08:50+02:00</time>
      </trkpt>
      <trkpt lat="43.59605" lon="3.68747">
        <ele>166</ele>
        <time>2021-05-01T22:08:55+02:00</time>
      </trkpt>
      <trkpt lat="43.59648" lon="3.68779">
        <ele>164</ele>
        <time>2021-05-01T22:09:00+02:00</time>
      </trkpt>
      <trkpt lat="43.59665" lon="3.68783">
        <ele>165</ele>
        <time>2021-05-01T22:09:05+02:00</time>
      </trkpt>
      <trkpt lat="43.59695" lon="3.68776">
        <ele>164</ele>
        <time>2021-05-01T22:09:10+02:00</time>
      </trkpt>
      <trkpt lat="43.59741" lon="3.68754">
        <ele>160</ele>
        <time>2021-05-01T22:09:15+02:00</time>
      </trkpt>
      <trkpt lat="43.5977" lon="3.68774">
        <ele>158</ele>
        <time>2021-05-01T22:09:20+02:00</time>
      </trkpt>
      <trkpt lat="43.59781" lon="3.68778">
        <ele>160</ele>
        <time>2021-05-01T22:09:25+02:00</time>
      </trkpt>
      <trkpt lat="43.59808" lon="3.68799">
        <ele>161</ele>
        <time>2021-05-01T22:09:30+02:00</time>
      </trkpt>
      <trkpt lat="43.59824" lon="3.68807">
        <ele>162</ele>
        <time>2021-05-01T22:09:35+02:00</time>
      </trkpt>
      <trkpt lat="43.59841" lon="3.68813">
        <ele>162</ele>
        <time>2021-05-01T22:09:40+02:00</time>
      </trkpt>
      <trkpt lat="43.59856" lon="3.68811">
        <ele>162</ele>
        <time>2021-05-01T22:09:45+02:00</time>
      </trkpt>
      <trkpt lat="43.59874" lon="3.68802">
        <ele>162</ele>
        <time>2021-05-01T22:09:50+02:00</time>
      </trkpt>
      <trkpt lat="43.5989" lon="3.68791">
        <ele>162</ele>
        <time>2021-05-01T22:09:55+02:00</time>
      </trkpt>
      <trkpt lat="43.59906" lon="3.68774">
        <ele>161</ele>
        <time>2021-05-01T22:10:00+02:00</time>
      </trkpt>
      <trkpt lat="43.59929" lon="3.68755">
        <ele>159</ele>
        <time>2021-05-01T22:10:05+02:00</time>
      </trkpt>
      <trkpt lat="43.59953" lon="3.68727">
        <ele>156</ele>
        <time>2021-05-01T22:10:10+02:00</time>
      </trkpt>
      <trkpt lat="43.59963" lon="3.68711">
        <ele>154</ele>
        <time>2021-05-01T22:10:15+02:00</time>
      </trkpt>
      <trkpt lat="43.59971" lon="3.68687">
        <ele>154</ele>
        <time>2021-05-01T22:10:20+02:00</time>
      </trkpt>
      <trkpt lat="43.59978" lon="3.68661">
        <ele>153</ele>
        <time>2021-05-01T22:10:25+02:00</time>
      </trkpt>
      <trkpt lat="43.59998" lon="3.68662">
        <ele>148</ele>
        <time>2021-05-01T22:10:30+02:00</time>
      </trkpt>
      <trkpt lat="43.60016" lon="3.6866">
        <ele>144</ele>
        <time>2021-05-01T22:10:35+02:00</time>
      </trkpt>
      <trkpt lat="43.60038" lon="3.68649">
        <ele>140</ele>
        <time>2021-05-01T22:10:40+02:00</time>
      </trkpt>
      <trkpt lat="43.60048" lon="3.68638">
        <ele>139</ele>
        <time>2021-05-01T22:10:45+02:00</time>
      </trkpt>
      <trkpt lat="43.60078" lon="3.68635">
        <ele>136</ele>
        <time>2021-05-01T22:10:50+02:00</time>
      </trkpt>
      <trkpt lat="43.60092" lon="3.68636">
        <ele>135</ele>
        <time>2021-05-01T22:10:55+02:00</time>
      </trkpt>
      <trkpt lat="43.60127" lon="3.68633">
        <ele>134</ele>
        <time>2021-05-01T22:11:00+02:00</time>
      </trkpt>
      <trkpt lat="43.60155" lon="3.6861">
        <ele>136</ele>
        <time>2021-05-01T22:11:05+02:00</time>
      </trkpt>
      <trkpt lat="43.60163" lon="3.68591">
        <ele>139</ele>
        <time>2021-05-01T22:11:10+02:00</time>
      </trkpt>
      <trkpt lat="43.60176" lon="3.68578">
        <ele>141</ele>
        <time>2021-05-01T22:11:15+02:00</time>
      </trkpt>
      <trkpt lat="43.60222" lon="3.68573">
        <ele>140</ele>
        <time>2021-05-01T22:11:20+02:00</time>
      </trkpt>
      <trkpt lat="43.60239" lon="3.6858">
        <ele>138</ele>
        <time>2021-05-01T22:11:25+02:00</time>
      </trkpt>
      <trkpt lat="43.60262" lon="3.68598">
        <ele>135</ele>
        <time>2021-05-01T22:11:30+02:00</time>
      </trkpt>
      <trkpt lat="43.6028" lon="3.68566">
        <ele>139</ele>
        <time>2021-05-01T22:11:35+02:00</time>
      </trkpt>
      <trkpt lat="43.60286" lon="3.68551">
        <ele>139</ele>
        <time>2021-05-01T22:11:40+02:00</time>
      </trkpt>
      <trkpt lat="43.60285" lon="3.68528">
        <ele>139</ele>
        <time>2021-05-01T22:11:45+02:00</time>
      </trkpt>
      <trkpt lat="43.60282" lon="3.68504">
        <ele>139</ele>
        <time>2021-05-01T22:11:50+02:00</time>
      </trkpt>
      <trkpt lat="43.60275" lon="3.68474">
        <ele>138</ele>
        <time>2021-05-01T22:11:55+02:00</time>
      </trkpt>
      <trkpt lat="43.60305" lon="3.68487">
        <ele>132</ele>
        <time>2021-05-01T22:12:00+02:00</time>
      </trkpt>
      <trkpt lat="43.60315" lon="3.685">
        <ele>131</ele>
        <time>2021-05-01T22:12:05+02:00</time>
      </trkpt>
      <trkpt lat="43.60329" lon="3.68529">
        <ele>130</ele>
        <time>2021-05-01T22:12:10+02:00</time>
      </trkpt>
      <trkpt lat="43.60342" lon="3.68559">
        <ele>129</ele>
        <time>2021-05-01T22:12:15+02:00</time>
      </trkpt>
      <trkpt lat="43.60348" lon="3.68574">
        <ele>128</ele>
        <time>2021-05-01T22:12:20+02:00</time>
      </trkpt>
      <trkpt lat="43.60376" lon="3.68622">
        <ele>122</ele>
        <time>2021-05-01T22:12:25+02:00</time>
      </trkpt>
      <trkpt lat="43.60383" lon="3.68639">
        <ele>120</ele>
        <time>2021-05-01T22:12:30+02:00</time>
      </trkpt>
      <trkpt lat="43.60384" lon="3.68662">
        <ele>119</ele>
        <time>2021-05-01T22:12:35+02:00</time>
      </trkpt>
      <trkpt lat="43.60378" lon="3.68721">
        <ele>117</ele>
        <time>2021-05-01T22:12:40+02:00</time>
      </trkpt>
      <trkpt lat="43.60376" lon="3.68734">
        <ele>116</ele>
        <time>2021-05-01T22:12:45+02:00</time>
      </trkpt>
      <trkpt lat="43.60364" lon="3.68759">
        <ele>116</ele>
        <time>2021-05-01T22:12:50+02:00</time>
      </trkpt>
      <trkpt lat="43.60345" lon="3.68785">
        <ele>116</ele>
        <time>2021-05-01T22:12:55+02:00</time>
      </trkpt>
      <trkpt lat="43.60335" lon="3.68805">
        <ele>115</ele>
        <time>2021-05-01T22:13:00+02:00</time>
      </trkpt>
      <trkpt lat="43.60334" lon="3.68824">
        <ele>114</ele>
        <time>2021-05-01T22:13:05+02:00</time>
      </trkpt>
      <trkpt lat="43.60339" lon="3.68844">
        <ele>112</ele>
        <time>2021-05-01T22:13:10+02:00</time>
      </trkpt>
      <trkpt lat="43.60338" lon="3.68862">
        <ele>111</ele>
        <time>2021-05-01T22:13:15+02:00</time>
      </trkpt>
      <trkpt lat="43.60329" lon="3.68876">
        <ele>111</ele>
        <time>2021-05-01T22:13:20+02:00</time>
      </trkpt>
      <trkpt lat="43.60317" lon="3.68906">
        <ele>108</ele>
        <time>2021-05-01T22:13:25+02:00</time>
      </trkpt>
      <trkpt lat="43.60325" lon="3.68934">
        <ele>106</ele>
        <time>2021-05-01T22:13:30+02:00</time>
      </trkpt>
      <trkpt lat="43.60341" lon="3.6894">
        <ele>104</ele>
        <time>2021-05-01T22:13:35+02:00</time>
      </trkpt>
      <trkpt lat="43.6035" lon="3.68935">
        <ele>103</ele>
        <time>2021-05-01T22:13:40+02:00</time>
      </trkpt>
      <trkpt lat="43.60367" lon="3.68887">
        <ele>103</ele>
        <time>2021-05-01T22:13:45+02:00</time>
      </trkpt>
      <trkpt lat="43.60376" lon="3.68843">
        <ele>104</ele>
        <time>2021-05-01T22:13:50+02:00</time>
      </trkpt>
      <trkpt lat="43.60378" lon="3.68829">
        <ele>105</ele>
        <time>2021-05-01T22:13:55+02:00</time>
      </trkpt>
      <trkpt lat="43.60399" lon="3.68758">
        <ele>107</ele>
        <time>2021-05-01T22:14:00+02:00</time>
      </trkpt>
      <trkpt lat="43.60415" lon="3.68713">
        <ele>105</ele>
        <time>2021-05-01T22:14:05+02:00</time>
      </trkpt>
      <trkpt lat="43.60428" lon="3.68681">
        <ele>105</ele>
        <time>2021-05-01T22:14:10+02:00</time>
      </trkpt>
      <trkpt lat="43.60436" lon="3.68654">
        <ele>105</ele>
        <time>2021-05-01T22:14:15+02:00</time>
      </trkpt>
      <trkpt lat="43.60441" lon="3.68625">
        <ele>105</ele>
        <time>2021-05-01T22:14:20+02:00</time>
      </trkpt>
      <trkpt lat="43.60456" lon="3.68626">
        <ele>105</ele>
        <time>2021-05-01T22:14:25+02:00</time>
      </trkpt>
      <trkpt lat="43.60486" lon="3.68621">
        <ele>105</ele>
        <time>2021-05-01T22:14:30+02:00</time>
      </trkpt>
      <trkpt lat="43.60491" lon="3.68611">
        <ele>105</ele>
        <time>2021-05-01T22:14:35+02:00</time>
      </trkpt>
      <trkpt lat="43.605" lon="3.68591">
        <ele>105</ele>
        <time>2021-05-01T22:14:40+02:00</time>
      </trkpt>
      <trkpt lat="43.60513" lon="3.68573">
        <ele>105</ele>
        <time>2021-05-01T22:14:45+02:00</time>
      </trkpt>
      <trkpt lat="43.60525" lon="3.68564">
        <ele>105</ele>
        <time>2021-05-01T22:14:50+02:00</time>
      </trkpt>
      <trkpt lat="43.60564" lon="3.68554">
        <ele>105</ele>
        <time>2021-05-01T22:14:55+02:00</time>
      </trkpt>
      <trkpt lat="43.60582" lon="3.68589">
        <ele>106</ele>
        <time>2021-05-01T22:15:00+02:00</time>
      </trkpt>
      <trkpt lat="43.60599" lon="3.68632">
        <ele>111</ele>
        <time>2021-05-01T22:15:05+02:00</time>
      </trkpt>
      <trkpt lat="43.60625" lon="3.68683">
        <ele>112</ele>
        <time>2021-05-01T22:15:10+02:00</time>
      </trkpt>
      <trkpt lat="43.60636" lon="3.68694">
        <ele>111</ele>
        <time>2021-05-01T22:15:15+02:00</time>
      </trkpt>
      <trkpt lat="43.60669" lon="3.68708">
        <ele>112</ele>
        <time>2021-05-01T22:15:20+02:00</time>
      </trkpt>
      <trkpt lat="43.60701" lon="3.68704">
        <ele>115</ele>
        <time>2021-05-01T22:15:25+02:00</time>
      </trkpt>
      <trkpt lat="43.60718" lon="3.68705">
        <ele>115</ele>
        <time>2021-05-01T22:15:30+02:00</time>
      </trkpt>
      <trkpt lat="43.60748" lon="3.68716">
        <ele>115</ele>
        <time>2021-05-01T22:15:35+02:00</time>
      </trkpt>
      <trkpt lat="43.60785" lon="3.68711">
        <ele>118</ele>
        <time>2021-05-01T22:15:40+02:00</time>
      </trkpt>
      <trkpt lat="43.60805" lon="3.68712">
        <ele>120</ele>
        <time>2021-05-01T22:15:45+02:00</time>
      </trkpt>
      <trkpt lat="43.60814" lon="3.68715">
        <ele>121</ele>
        <time>2021-05-01T22:15:50+02:00</time>
      </trkpt>
      <trkpt lat="43.60828" lon="3.68726">
        <ele>121</ele>
        <time>2021-05-01T22:15:55+02:00</time>
      </trkpt>
      <trkpt lat="43.60835" lon="3.68733">
        <ele>121</ele>
        <time>2021-05-01T22:16:00+02:00</time>
      </trkpt>
      <trkpt lat="43.60857" lon="3.68775">
        <ele>120</ele>
        <time>2021-05-01T22:16:05+02:00</time>
      </trkpt>
      <trkpt lat="43.60883" lon="3.68827">
        <ele>120</ele>
        <time>2021-05-01T22:16:10+02:00</time>
      </trkpt>
      <trkpt lat="43.60895" lon="3.68846">
        <ele>121</ele>
        <time>2021-05-01T22:16:15+02:00</time>
      </trkpt>
      <trkpt lat="43.6091" lon="3.68864">
        <ele>121</ele>
        <time>2021-05-01T22:16:20+02:00</time>
      </trkpt>
      <trkpt lat="43.60918" lon="3.6887">
        <ele>121</ele>
        <time>2021-05-01T22:16:25+02:00</time>
      </trkpt>
      <trkpt lat="43.60934" lon="3.68884">
        <ele>124</ele>
        <time>2021-05-01T22:16:30+02:00</time>
      </trkpt>
      <trkpt lat="43.6095" lon="3.68896">
        <ele>125</ele>
        <time>2021-05-01T22:16:35+02:00</time>
      </trkpt>
      <trkpt lat="43.60966" lon="3.68902">
        <ele>129</ele>
        <time>2021-05-01T22:16:40+02:00</time>
      </trkpt>
      <trkpt lat="43.60985" lon="3.68914">
        <ele>131</ele>
        <time>2021-05-01T22:16:45+02:00</time>
      </trkpt>
      <trkpt lat="43.61003" lon="3.68934">
        <ele>131</ele>
        <time>2021-05-01T22:16:50+02:00</time>
      </trkpt>
      <trkpt lat="43.61024" lon="3.68965">
        <ele>127</ele>
        <time>2021-05-01T22:16:55+02:00</time>
      </trkpt>
      <trkpt lat="43.61024" lon="3.68985">
        <ele>125</ele>
        <time>2021-05-01T22:17:00+02:00</time>
      </trkpt>
      <trkpt lat="43.61028" lon="3.69048">
        <ele>126</ele>
        <time>2021-05-01T22:17:05+02:00</time>
      </trkpt>
      <trkpt lat="43.61009" lon="3.69108">
        <ele>126</ele>
        <time>2021-05-01T22:17:10+02:00</time>
      </trkpt>
      <trkpt lat="43.61014" lon="3.69167">
        <ele>126</ele>
        <time>2021-05-01T22:17:15+02:00</time>
      </trkpt>
      <trkpt lat="43.61011" lon="3.6918">
        <ele>125</ele>
        <time>2021-05-01T22:17:20+02:00</time>
      </trkpt>
      <trkpt lat="43.61022" lon="3.69251">
        <ele>126</ele>
        <time>2021-05-01T22:17:25+02:00</time>
      </trkpt>
      <trkpt lat="43.61022" lon="3.69299">
        <ele>129</ele>
        <time>2021-05-01T22:17:30+02:00</time>
      </trkpt>
      <trkpt lat="43.61029" lon="3.69334">
        <ele>128</ele>
        <time>2021-05-01T22:17:35+02:00</time>
      </trkpt>
      <trkpt lat="43.61033" lon="3.69367">
        <ele>129</ele>
        <time>2021-05-01T22:17:40+02:00</time>
      </trkpt>
      <trkpt lat="43.61031" lon="3.69394">
        <ele>129</ele>
        <time>2021-05-01T22:17:45+02:00</time>
      </trkpt>
      <trkpt lat="43.61025" lon="3.69415">
        <ele>130</ele>
        <time>2021-05-01T22:17:50+02:00</time>
      </trkpt>
      <trkpt lat="43.61022" lon="3.69445">
        <ele>132</ele>
        <time>2021-05-01T22:17:55+02:00</time>
      </trkpt>
      <trkpt lat="43.61024" lon="3.69474">
        <ele>132</ele>
        <time>2021-05-01T22:18:00+02:00</time>
      </trkpt>
      <trkpt lat="43.61035" lon="3.69517">
        <ele>133</ele>
        <time>2021-05-01T22:18:05+02:00</time>
      </trkpt>
      <trkpt lat="43.61046" lon="3.69556">
        <ele>134</ele>
        <time>2021-05-01T22:18:10+02:00</time>
      </trkpt>
      <trkpt lat="43.61057" lon="3.69603">
        <ele>137</ele>
        <time>2021-05-01T22:18:15+02:00</time>
      </trkpt>
      <trkpt lat="43.61069" lon="3.69636">
        <ele>137</ele>
        <time>2021-05-01T22:18:20+02:00</time>
      </trkpt>
      <trkpt lat="43.61069" lon="3.69674">
        <ele>140</ele>
        <time>2021-05-01T22:18:25+02:00</time>
      </trkpt>
      <trkpt lat="43.61064" lon="3.69718">
        <ele>143</ele>
        <time>2021-05-01T22:18:30+02:00</time>
      </trkpt>
      <trkpt lat="43.61054" lon="3.69768">
        <ele>147</ele>
        <time>2021-05-01T22:18:35+02:00</time>
      </trkpt>
      <trkpt lat="43.6104" lon="3.69817">
        <ele>152</ele>
        <time>2021-05-01T22:18:40+02:00</time>
      </trkpt>
      <trkpt lat="43.61039" lon="3.69874">
        <ele>154</ele>
        <time>2021-05-01T22:18:45+02:00</time>
      </trkpt>
      <trkpt lat="43.6105" lon="3.6993">
        <ele>155</ele>
        <time>2021-05-01T22:18:50+02:00</time>
      </trkpt>
      <trkpt lat="43.61063" lon="3.70025">
        <ele>161</ele>
        <time>2021-05-01T22:18:55+02:00</time>
      </trkpt>
      <trkpt lat="43.61084" lon="3.70114">
        <ele>164</ele>
        <time>2021-05-01T22:19:00+02:00</time>
      </trkpt>
      <trkpt lat="43.61095" lon="3.70181">
        <ele>167</ele>
        <time>2021-05-01T22:19:05+02:00</time>
      </trkpt>
      <trkpt lat="43.61108" lon="3.70245">
        <ele>168</ele>
        <time>2021-05-01T22:19:10+02:00</time>
      </trkpt>
      <trkpt lat="43.61119" lon="3.70288">
        <ele>172</ele>
        <time>2021-05-01T22:19:15+02:00</time>
      </trkpt>
      <trkpt lat="43.61138" lon="3.70319">
        <ele>177</ele>
        <time>2021-05-01T22:19:20+02:00</time>
      </trkpt>
      <trkpt lat="43.61157" lon="3.70359">
        <ele>180</ele>
        <time>2021-05-01T22:19:25+02:00</time>
      </trkpt>
      <trkpt lat="43.61176" lon="3.70382">
        <ele>181</ele>
        <time>2021-05-01T22:19:30+02:00</time>
      </trkpt>
      <trkpt lat="43.61195" lon="3.70412">
        <ele>182</ele>
        <time>2021-05-01T22:19:35+02:00</time>
      </trkpt>
      <trkpt lat="43.61218" lon="3.70439">
        <ele>182</ele>
        <time>2021-05-01T22:19:40+02:00</time>
      </trkpt>
      <trkpt lat="43.61225" lon="3.70453">
        <ele>182</ele>
        <time>2021-05-01T22:19:45+02:00</time>
      </trkpt>
      <trkpt lat="43.61233" lon="3.70484">
        <ele>183</ele>
        <time>2021-05-01T22:19:50+02:00</time>
      </trkpt>
      <trkpt lat="43.61246" lon="3.70526">
        <ele>185</ele>
        <time>2021-05-01T22:19:55+02:00</time>
      </trkpt>
      <trkpt lat="43.61272" lon="3.70601">
        <ele>188</ele>
        <time>2021-05-01T22:20:00+02:00</time>
      </trkpt>
      <trkpt lat="43.61298" lon="3.70677">
        <ele>193</ele>
        <time>2021-05-01T22:20:05+02:00</time>
      </trkpt>
      <trkpt lat="43.61333" lon="3.70761">
        <ele>190</ele>
        <time>2021-05-01T22:20:10+02:00</time>
      </trkpt>
      <trkpt lat="43.61338" lon="3.70781">
        <ele>188</ele>
        <time>2021-05-01T22:20:15+02:00</time>
      </trkpt>
      <trkpt lat="43.61339" lon="3.70797">
        <ele>186</ele>
        <time>2021-05-01T22:20:20+02:00</time>
      </trkpt>
      <trkpt lat="43.61341" lon="3.70812">
        <ele>185</ele>
        <time>2021-05-01T22:20:25+02:00</time>
      </trkpt>
      <trkpt lat="43.6134" lon="3.70832">
        <ele>184</ele>
        <time>2021-05-01T22:20:30+02:00</time>
      </trkpt>
      <trkpt lat="43.61348" lon="3.70864">
        <ele>182</ele>
        <time>2021-05-01T22:20:35+02:00</time>
      </trkpt>
      <trkpt lat="43.6135" lon="3.70894">
        <ele>180</ele>
        <time>2021-05-01T22:20:40+02:00</time>
      </trkpt>
      <trkpt lat="43.6135" lon="3.70909">
        <ele>180</ele>
        <time>2021-05-01T22:20:45+02:00</time>
      </trkpt>
      <trkpt lat="43.61349" lon="3.70955">
        <ele>181</ele>
        <time>2021-05-01T22:20:50+02:00</time>
      </trkpt>
      <trkpt lat="43.6135" lon="3.70995">
        <ele>183</ele>
        <time>2021-05-01T22:20:55+02:00</time>
      </trkpt>
      <trkpt lat="43.61349" lon="3.71015">
        <ele>184</ele>
        <time>2021-05-01T22:21:00+02:00</time>
      </trkpt>
      <trkpt lat="43.61347" lon="3.71051">
        <ele>185</ele>
        <time>2021-05-01T22:21:05+02:00</time>
      </trkpt>
      <trkpt lat="43.61345" lon="3.71075">
        <ele>186</ele>
        <time>2021-05-01T22:21:10+02:00</time>
      </trkpt>
      <trkpt lat="43.6136" lon="3.7109">
        <ele>187</ele>
        <time>2021-05-01T22:21:15+02:00</time>
      </trkpt>
    </trkseg>
  </trk>
</gpx>